Time;durP1;ratioP1;P1;durP2;ratioP2;P2;SDS_P1;SDS_P2;PMS_P1;PMS_P2;Temp;Humidity;BMP_temperature;BMP_pressure;BME280_temperature;BME280_humidity;BME280_pressure;Samples;Min_cycle;Max_cycle;Signal;HPM_P1;HPM_P2
2023/03/16 00:02:03;;;;;;;;;;;1.50;99.90;;;;;;4994799;28;19910;-76
2023/03/16 00:04:29;;;;;;;;;;;1.50;99.90;;;;;;4993557;28;19916;-76
2023/03/16 00:06:55;;;;;;;;;;;1.50;99.90;;;;;;4994692;28;19916;-76
2023/03/16 00:09:21;;;;;;;;;;;1.50;99.90;;;;;;5009953;28;19937;-76
2023/03/16 00:11:46;;;;;;;;;;;1.50;99.90;;;;;;4994568;28;20325;-77
2023/03/16 00:14:12;;;;;;;;;;;1.50;99.90;;;;;;5009830;28;19914;-76
2023/03/16 00:16:38;;;;;;;;;;;1.50;99.90;;;;;;4994548;28;19914;-76
2023/03/16 00:19:04;;;;;;;;;;;1.50;99.90;;;;;;4994569;28;20374;-76
2023/03/16 00:21:31;;;;;;;;;;;1.50;99.90;;;;;;4994507;28;19914;-76
2023/03/16 00:23:59;;;;;;;;;;;1.50;99.90;;;;;;4994430;28;19910;-76
2023/03/16 00:26:25;;;;;;;;;;;1.50;99.90;;;;;;4994412;28;19917;-76
2023/03/16 00:28:53;;;;;;;;;;;1.40;99.90;;;;;;4993238;28;19918;-76
2023/03/16 00:31:18;;;;;;;;;;;1.40;99.90;;;;;;5009478;28;19925;-76
2023/03/16 00:33:44;;;;;;;;;;;1.40;99.90;;;;;;4994689;28;19914;-76
2023/03/16 00:36:10;;;;;;;;;;;1.40;99.90;;;;;;4998458;28;20036;-77
2023/03/16 00:38:44;;;;;;;;;;;1.40;99.90;;;;;;5017944;28;19917;-76
2023/03/16 00:41:13;;;;;;;;;;;1.40;99.90;;;;;;5020837;28;19960;-76
2023/03/16 00:43:42;;;;;;;;;;;1.40;99.90;;;;;;5020533;28;19909;-76
2023/03/16 00:46:10;;;;;;;;;;;1.30;99.90;;;;;;5020399;28;20365;-76
2023/03/16 00:48:36;;;;;;;;;;;1.30;99.90;;;;;;5020399;28;19916;-76
2023/03/16 00:51:05;;;;;;;;;;;1.40;99.90;;;;;;5020352;28;19959;-76
2023/03/16 00:53:34;;;;;;;;;;;1.30;99.90;;;;;;5020164;28;19996;-76
2023/03/16 00:56:03;;;;;;;;;;;1.30;99.90;;;;;;5020403;28;19945;-76
2023/03/16 00:58:29;;;;;;;;;;;1.20;99.90;;;;;;5020311;28;20369;-76
2023/03/16 01:00:56;;;;;;;;;;;1.10;99.90;;;;;;5020349;28;19913;-76
2023/03/16 01:03:21;;;;;;;;;;;1.10;99.90;;;;;;5020547;28;19924;-76
2023/03/16 01:05:47;;;;;;;;;;;1.20;99.90;;;;;;5020300;28;20286;-76
2023/03/16 01:08:13;;;;;;;;;;;1.20;99.90;;;;;;5019900;28;19981;-76
2023/03/16 01:10:39;;;;;;;;;;;1.20;99.90;;;;;;5020555;28;20373;-76
2023/03/16 01:13:06;;;;;;;;;;;1.30;99.90;;;;;;5018884;28;20012;-76
2023/03/16 01:15:33;;;;;;;;;;;1.20;99.90;;;;;;5020217;28;20412;-76
2023/03/16 01:17:59;;;;;;;;;;;1.20;99.90;;;;;;5019035;28;19914;-76
2023/03/16 01:20:25;;;;;;;;;;;1.20;99.90;;;;;;5020487;28;19910;-76
2023/03/16 01:22:51;;;;;;;;;;;1.20;99.90;;;;;;5019871;28;19963;-76
2023/03/16 01:25:17;;;;;;;;;;;1.20;99.90;;;;;;5017367;28;20277;-76
2023/03/16 01:27:43;;;;;;;;;;;1.10;99.90;;;;;;5020117;28;19916;-76
2023/03/16 01:30:11;;;;;;;;;;;1.10;99.90;;;;;;5020443;28;19913;-76
2023/03/16 01:32:37;;;;;;;;;;;1.10;99.90;;;;;;5020241;28;19925;-76
2023/03/16 01:35:03;;;;;;;;;;;1.10;99.90;;;;;;5020200;28;19914;-76
2023/03/16 01:37:30;;;;;;;;;;;1.00;99.90;;;;;;5019074;28;19975;-75
2023/03/16 01:39:56;;;;;;;;;;;1.10;99.90;;;;;;5018535;28;19980;-75
2023/03/16 01:42:23;;;;;;;;;;;1.10;99.90;;;;;;5019179;28;21632;-75
2023/03/16 01:45:04;;;;;;;;;;;1.10;99.90;;;;;;5019915;28;19921;-75
2023/03/16 01:47:36;;;;;;;;;;;1.10;99.90;;;;;;5018093;28;20427;-75
2023/03/16 01:50:03;;;;;;;;;;;1.20;99.90;;;;;;5016824;28;19913;-75
2023/03/16 01:52:32;;;;;;;;;;;1.20;99.90;;;;;;5016758;28;19956;-75
2023/03/16 01:54:59;;;;;;;;;;;1.20;99.90;;;;;;5006383;28;19909;-75
2023/03/16 01:57:29;;;;;;;;;;;1.20;99.90;;;;;;4997024;28;20012;-75
2023/03/16 02:00:09;;;;;;;;;;;1.20;99.90;;;;;;4995817;28;19910;-75
2023/03/16 02:02:38;;;;;;;;;;;1.10;99.90;;;;;;4997351;28;20281;-75
2023/03/16 02:05:11;;;;;;;;;;;1.10;99.90;;;;;;4997212;28;20258;-75
2023/03/16 02:07:41;;;;;;;;;;;1.10;99.90;;;;;;4997147;28;20346;-75
2023/03/16 02:10:07;;;;;;;;;;;1.10;99.90;;;;;;4996595;28;19910;-76
2023/03/16 02:12:33;;;;;;;;;;;1.10;99.90;;;;;;4996474;28;19914;-76
2023/03/16 02:14:58;;;;;;;;;;;1.10;99.90;;;;;;4996595;28;20013;-75
2023/03/16 02:17:25;;;;;;;;;;;1.00;99.90;;;;;;4996688;28;19913;-75
2023/03/16 02:20:10;;;;;;;;;;;1.00;99.90;;;;;;4996643;28;20044;-75
2023/03/16 02:22:38;;;;;;;;;;;1.00;99.90;;;;;;5011758;28;20286;-75
2023/03/16 02:25:04;;;;;;;;;;;1.00;99.90;;;;;;4983994;28;19911;-75
2023/03/16 02:27:36;;;;;;;;;;;1.00;99.90;;;;;;4977845;28;20274;-75
2023/03/16 02:30:03;;;;;;;;;;;0.90;99.90;;;;;;4977077;28;19968;-75
2023/03/16 02:32:30;;;;;;;;;;;0.90;99.90;;;;;;4976923;28;19922;-75
2023/03/16 02:34:57;;;;;;;;;;;0.90;99.90;;;;;;4976973;28;19993;-75
2023/03/16 02:37:22;;;;;;;;;;;0.90;99.90;;;;;;4976433;28;19918;-75
2023/03/16 02:39:48;;;;;;;;;;;0.90;99.90;;;;;;4991444;28;19919;-75
2023/03/16 02:42:18;;;;;;;;;;;0.90;99.90;;;;;;4991947;28;20001;-76
2023/03/16 02:44:45;;;;;;;;;;;1.00;99.90;;;;;;4975755;28;19929;-76
2023/03/16 02:47:18;;;;;;;;;;;1.00;99.90;;;;;;4976678;28;19910;-76
2023/03/16 02:49:44;;;;;;;;;;;1.00;99.90;;;;;;4976623;28;19918;-75
2023/03/16 02:52:10;;;;;;;;;;;1.10;99.90;;;;;;4991921;28;19918;-76
2023/03/16 02:54:36;;;;;;;;;;;1.10;99.90;;;;;;4991064;28;19956;-75
2023/03/16 02:57:02;;;;;;;;;;;1.10;99.90;;;;;;5015416;28;19956;-76
2023/03/16 02:59:27;;;;;;;;;;;1.10;99.90;;;;;;5015337;28;19955;-76
2023/03/16 03:01:53;;;;;;;;;;;1.10;99.90;;;;;;5014234;28;20362;-75
2023/03/16 03:04:22;;;;;;;;;;;1.10;99.90;;;;;;5015390;28;19992;-76
2023/03/16 03:06:47;;;;;;;;;;;1.10;99.90;;;;;;5015337;28;19921;-76
2023/03/16 03:09:13;;;;;;;;;;;1.00;99.90;;;;;;5013854;28;20289;-76
2023/03/16 03:11:39;;;;;;;;;;;0.90;99.90;;;;;;5015480;28;19918;-76
2023/03/16 03:14:05;;;;;;;;;;;0.90;99.90;;;;;;5016078;28;19917;-76
2023/03/16 03:16:30;;;;;;;;;;;0.90;99.90;;;;;;5015372;28;19909;-75
2023/03/16 03:18:57;;;;;;;;;;;0.80;99.90;;;;;;5014146;28;19955;-75
2023/03/16 03:21:23;;;;;;;;;;;0.80;99.90;;;;;;5015118;28;19909;-75
2023/03/16 03:23:49;;;;;;;;;;;0.70;99.90;;;;;;5014050;28;19910;-75
2023/03/16 03:26:15;;;;;;;;;;;0.70;99.90;;;;;;4995194;28;19925;-75
2023/03/16 03:28:40;;;;;;;;;;;0.60;99.90;;;;;;4995412;28;19952;-75
2023/03/16 03:31:07;;;;;;;;;;;0.70;99.90;;;;;;4995256;28;19910;-75
2023/03/16 03:33:32;;;;;;;;;;;0.70;99.90;;;;;;4995567;28;19917;-75
2023/03/16 03:35:58;;;;;;;;;;;0.70;99.90;;;;;;5010284;28;19936;-75
2023/03/16 03:38:24;;;;;;;;;;;0.70;99.90;;;;;;4995087;28;19918;-75
2023/03/16 03:40:51;;;;;;;;;;;0.70;99.90;;;;;;4994970;28;19914;-75
2023/03/16 03:43:16;;;;;;;;;;;0.80;99.90;;;;;;4995140;28;20381;-74
2023/03/16 03:45:42;;;;;;;;;;;0.80;99.90;;;;;;4995110;28;19914;-75
2023/03/16 03:48:07;;;;;;;;;;;0.80;99.90;;;;;;4995097;28;20336;-75
2023/03/16 03:50:33;;;;;;;;;;;0.80;99.90;;;;;;4994963;28;19914;-74
2023/03/16 03:52:58;;;;;;;;;;;0.80;99.90;;;;;;4995177;28;19918;-76
2023/03/16 03:55:24;;;;;;;;;;;0.80;99.90;;;;;;5008514;28;19914;-75
2023/03/16 03:57:49;;;;;;;;;;;0.80;99.90;;;;;;5015249;28;19913;-75
2023/03/16 04:00:19;;;;;;;;;;;0.80;99.90;;;;;;5014488;28;19914;-75
2023/03/16 04:02:45;;;;;;;;;;;0.70;99.90;;;;;;5014667;28;19916;-75
2023/03/16 04:05:11;;;;;;;;;;;0.60;99.90;;;;;;5014367;28;19909;-75
2023/03/16 04:07:37;;;;;;;;;;;0.50;99.90;;;;;;5014214;28;19916;-75
2023/03/16 04:10:03;;;;;;;;;;;0.50;99.90;;;;;;5013807;28;20332;-75
2023/03/16 04:12:28;;;;;;;;;;;0.50;99.90;;;;;;5013219;28;20004;-75
2023/03/16 04:14:54;;;;;;;;;;;0.50;99.90;;;;;;5014550;28;19979;-75
2023/03/16 04:17:20;;;;;;;;;;;0.50;99.90;;;;;;5014315;28;20389;-75
2023/03/16 04:19:46;;;;;;;;;;;0.50;99.90;;;;;;5014214;28;20324;-75
2023/03/16 04:22:12;;;;;;;;;;;0.50;99.90;;;;;;5014119;28;19917;-75
2023/03/16 04:24:37;;;;;;;;;;;0.50;99.90;;;;;;5014051;28;20259;-75
2023/03/16 04:27:03;;;;;;;;;;;0.50;99.90;;;;;;5012905;28;19921;-75
2023/03/16 04:29:29;;;;;;;;;;;0.50;99.90;;;;;;5014046;28;19913;-75
2023/03/16 04:31:54;;;;;;;;;;;0.50;99.90;;;;;;5013151;28;19921;-74
2023/03/16 04:34:23;;;;;;;;;;;0.50;99.90;;;;;;5013990;28;19953;-75
2023/03/16 04:36:52;;;;;;;;;;;0.50;99.90;;;;;;5014137;28;19924;-75
2023/03/16 04:39:18;;;;;;;;;;;0.50;99.90;;;;;;5013803;28;19960;-75
2023/03/16 04:41:44;;;;;;;;;;;0.40;99.90;;;;;;5014288;28;19960;-74
2023/03/16 04:44:10;;;;;;;;;;;0.40;99.90;;;;;;5013910;28;19909;-75
2023/03/16 04:46:35;;;;;;;;;;;0.40;99.90;;;;;;5013917;28;20437;-74
2023/03/16 04:49:01;;;;;;;;;;;0.30;99.90;;;;;;5014491;28;20009;-75
2023/03/16 04:51:27;;;;;;;;;;;0.20;99.90;;;;;;5013762;28;20365;-74
2023/03/16 04:53:53;;;;;;;;;;;0.00;99.90;;;;;;5013760;28;19910;-74
2023/03/16 04:56:19;;;;;;;;;;;-0.10;99.90;;;;;;5013488;28;20400;-75
2023/03/16 04:58:48;;;;;;;;;;;-0.10;99.90;;;;;;5012600;28;19910;-75
2023/03/16 05:01:14;;;;;;;;;;;-0.20;99.90;;;;;;5012558;28;19909;-75
2023/03/16 05:03:40;;;;;;;;;;;-0.30;99.90;;;;;;5013759;28;20373;-75
2023/03/16 05:06:05;;;;;;;;;;;-0.20;99.90;;;;;;5013760;28;19916;-75
2023/03/16 05:08:31;;;;;;;;;;;-0.20;99.90;;;;;;5013944;28;19920;-75
2023/03/16 05:10:57;;;;;;;;;;;-0.20;99.90;;;;;;5013610;28;19920;-75
2023/03/16 05:13:23;;;;;;;;;;;-0.10;99.90;;;;;;5013542;28;19913;-74
2023/03/16 05:15:48;;;;;;;;;;;-0.10;99.90;;;;;;5013723;28;19963;-75
2023/03/16 05:18:14;;;;;;;;;;;0.00;99.90;;;;;;5013638;28;19913;-75
2023/03/16 05:20:41;;;;;;;;;;;0.10;99.90;;;;;;5013574;28;20012;-74
2023/03/16 05:23:07;;;;;;;;;;;0.10;99.90;;;;;;5013530;28;19929;-75
2023/03/16 05:25:33;;;;;;;;;;;0.20;99.90;;;;;;5017112;28;19914;-75
2023/03/16 05:27:58;;;;;;;;;;;0.20;99.90;;;;;;5017315;28;19920;-75
2023/03/16 05:30:25;;;;;;;;;;;0.20;99.90;;;;;;5017480;28;19909;-74
2023/03/16 05:32:50;;;;;;;;;;;0.20;99.90;;;;;;5017255;28;20004;-73
2023/03/16 05:35:16;;;;;;;;;;;0.20;99.90;;;;;;5017706;28;20373;-74
2023/03/16 05:37:42;;;;;;;;;;;0.20;99.90;;;;;;5016842;28;19964;-74
2023/03/16 05:40:15;;;;;;;;;;;0.10;99.90;;;;;;5016928;28;19963;-74
2023/03/16 05:42:45;;;;;;;;;;;0.10;99.90;;;;;;5017053;28;20043;-74
2023/03/16 05:45:11;;;;;;;;;;;0.20;99.90;;;;;;5015632;28;20357;-73
2023/03/16 05:47:37;;;;;;;;;;;0.10;99.90;;;;;;5015503;28;20385;-74
2023/03/16 05:50:03;;;;;;;;;;;0.10;99.90;;;;;;5016882;28;19913;-74
2023/03/16 05:52:28;;;;;;;;;;;0.10;99.90;;;;;;5017267;28;19925;-74
2023/03/16 05:54:54;;;;;;;;;;;0.20;99.90;;;;;;5016582;28;20281;-74
2023/03/16 05:57:19;;;;;;;;;;;0.20;99.90;;;;;;5015440;28;20027;-74
2023/03/16 05:59:45;;;;;;;;;;;0.20;99.90;;;;;;5016653;28;19914;-74
2023/03/16 06:02:10;;;;;;;;;;;0.30;99.90;;;;;;5016842;28;19917;-74
2023/03/16 06:04:36;;;;;;;;;;;0.30;99.90;;;;;;5016532;28;19913;-74
2023/03/16 06:07:02;;;;;;;;;;;0.30;99.90;;;;;;5016999;28;19956;-73
2023/03/16 06:09:27;;;;;;;;;;;0.30;99.90;;;;;;5016490;28;19914;-74
2023/03/16 06:11:53;;;;;;;;;;;0.30;99.90;;;;;;5016068;28;20395;-74
2023/03/16 06:14:18;;;;;;;;;;;0.30;99.90;;;;;;5016452;28;19941;-73
2023/03/16 06:16:44;;;;;;;;;;;0.30;99.90;;;;;;5016555;28;19918;-74
2023/03/16 06:19:09;;;;;;;;;;;0.40;99.90;;;;;;5016298;28;19996;-74
2023/03/16 06:21:35;;;;;;;;;;;0.30;99.90;;;;;;5016182;28;19963;-74
2023/03/16 06:24:01;;;;;;;;;;;0.40;99.90;;;;;;5016329;28;19918;-75
2023/03/16 06:26:26;;;;;;;;;;;0.40;99.90;;;;;;5015469;28;19983;-74
2023/03/16 06:28:52;;;;;;;;;;;0.40;99.90;;;;;;5016086;28;20428;-74
2023/03/16 06:31:17;;;;;;;;;;;0.30;99.90;;;;;;5015994;28;19914;-74
2023/03/16 06:33:43;;;;;;;;;;;0.30;99.90;;;;;;5015543;28;19909;-74
2023/03/16 06:36:09;;;;;;;;;;;0.30;99.90;;;;;;5016151;28;20358;-74
2023/03/16 06:38:34;;;;;;;;;;;0.20;99.90;;;;;;5015703;28;20405;-74
2023/03/16 06:41:00;;;;;;;;;;;0.20;99.90;;;;;;5015728;28;19916;-74
2023/03/16 06:43:26;;;;;;;;;;;0.10;99.90;;;;;;5015646;28;19909;-74
2023/03/16 06:45:52;;;;;;;;;;;0.20;99.90;;;;;;5015743;28;20292;-74
2023/03/16 06:48:17;;;;;;;;;;;0.20;99.90;;;;;;5015698;28;19920;-74
2023/03/16 06:50:46;;;;;;;;;;;0.30;99.90;;;;;;5016334;28;20352;-74
2023/03/16 06:53:11;;;;;;;;;;;0.30;99.90;;;;;;5015544;28;20013;-74
2023/03/16 06:55:37;;;;;;;;;;;0.40;99.90;;;;;;5014077;28;20385;-74
2023/03/16 06:58:03;;;;;;;;;;;0.40;99.90;;;;;;5015532;28;19914;-75
2023/03/16 07:00:29;;;;;;;;;;;0.40;99.90;;;;;;5015306;28;20380;-75
2023/03/16 07:02:55;;;;;;;;;;;0.40;99.90;;;;;;5014341;28;19992;-76
2023/03/16 07:05:20;;;;;;;;;;;0.50;99.90;;;;;;5015431;28;20404;-76
2023/03/16 07:07:46;;;;;;;;;;;0.50;99.90;;;;;;5015876;28;19913;-81
2023/03/16 07:10:13;;;;;;;;;;;0.40;99.90;;;;;;5018450;28;19968;-78
2023/03/16 07:12:41;;;;;;;;;;;0.40;99.90;;;;;;5018479;28;19913;-77
2023/03/16 07:15:07;;;;;;;;;;;0.50;99.90;;;;;;5016498;28;20370;-80
2023/03/16 07:17:32;;;;;;;;;;;0.50;99.90;;;;;;4999557;28;19932;-80
2023/03/16 07:19:58;;;;;;;;;;;0.40;99.90;;;;;;5016211;28;19914;-81
2023/03/16 07:22:23;;;;;;;;;;;0.50;99.90;;;;;;5017488;28;19932;-82
2023/03/16 07:24:56;;;;;;;;;;;0.50;99.90;;;;;;5016506;28;19968;-81
2023/03/16 07:27:22;;;;;;;;;;;0.50;99.90;;;;;;5018203;28;19913;-82
2023/03/16 07:29:48;;;;;;;;;;;0.60;99.90;;;;;;5016450;28;19936;-76
2023/03/16 07:32:14;;;;;;;;;;;0.60;99.90;;;;;;5015000;28;19917;-77
2023/03/16 07:34:40;;;;;;;;;;;0.60;99.90;;;;;;5013569;28;19913;-77
2023/03/16 07:37:07;;;;;;;;;;;0.60;99.90;;;;;;5015362;28;19929;-77
2023/03/16 07:39:33;;;;;;;;;;;0.60;99.90;;;;;;5013615;28;19920;-77
2023/03/16 07:42:00;;;;;;;;;;;0.60;99.90;;;;;;5013227;28;19921;-77
2023/03/16 07:44:26;;;;;;;;;;;0.60;99.90;;;;;;5014683;28;19925;-81
2023/03/16 07:46:51;;;;;;;;;;;0.60;99.90;;;;;;4997587;28;20000;-81
2023/03/16 07:49:17;;;;;;;;;;;0.60;99.90;;;;;;5013688;28;19951;-77
2023/03/16 07:51:43;;;;;;;;;;;0.60;99.90;;;;;;5013268;28;20277;-76
2023/03/16 07:54:08;;;;;;;;;;;0.70;99.90;;;;;;5016025;28;19916;-82
2023/03/16 07:56:34;;;;;;;;;;;0.70;99.90;;;;;;4999210;28;19914;-82
2023/03/16 07:59:00;;;;;;;;;;;0.80;99.90;;;;;;5015509;28;20370;-82
2023/03/16 08:01:26;;;;;;;;;;;0.80;99.90;;;;;;5017080;28;19918;-82
2023/03/16 08:03:52;;;;;;;;;;;0.80;99.90;;;;;;5015414;28;20004;-83
2023/03/16 08:06:18;;;;;;;;;;;0.80;99.90;;;;;;5014728;28;20354;-82
2023/03/16 08:08:43;;;;;;;;;;;0.90;99.90;;;;;;5016245;28;20332;-83
2023/03/16 08:11:10;;;;;;;;;;;0.90;99.90;;;;;;5016102;28;19920;-83
2023/03/16 08:13:35;;;;;;;;;;;0.90;99.90;;;;;;4999093;28;19913;-83
2023/03/16 08:16:01;;;;;;;;;;;0.90;99.90;;;;;;5014781;28;19943;-83
2023/03/16 08:18:28;;;;;;;;;;;1.00;99.90;;;;;;5014717;28;19919;-83
2023/03/16 08:20:54;;;;;;;;;;;1.10;99.90;;;;;;5014822;28;19973;-83
2023/03/16 08:23:21;;;;;;;;;;;1.20;99.90;;;;;;5014874;28;19917;-83
2023/03/16 08:25:47;;;;;;;;;;;1.10;99.90;;;;;;5014525;28;20262;-82
2023/03/16 08:28:13;;;;;;;;;;;1.20;99.90;;;;;;5015964;28;19921;-81
2023/03/16 08:30:46;;;;;;;;;;;1.30;99.90;;;;;;5016659;28;19909;-81
2023/03/16 08:33:12;;;;;;;;;;;1.30;99.90;;;;;;5015366;28;19925;-81
2023/03/16 08:35:41;;;;;;;;;;;1.40;99.90;;;;;;5015004;28;19918;-81
2023/03/16 08:38:07;;;;;;;;;;;1.40;99.90;;;;;;5015816;28;20337;-82
2023/03/16 08:40:33;;;;;;;;;;;1.50;99.90;;;;;;5014514;28;19918;-83
2023/03/16 08:42:59;;;;;;;;;;;1.60;99.90;;;;;;5015138;28;19921;-82
2023/03/16 08:45:25;;;;;;;;;;;1.60;99.90;;;;;;5014986;28;20316;-83
2023/03/16 08:47:51;;;;;;;;;;;1.70;99.90;;;;;;5017773;28;19952;-83
2023/03/16 08:50:18;;;;;;;;;;;1.80;99.90;;;;;;5016687;28;19916;-83
2023/03/16 08:52:44;;;;;;;;;;;1.90;99.90;;;;;;5015144;28;19921;-82
2023/03/16 08:55:09;;;;;;;;;;;2.00;99.90;;;;;;4998495;28;19914;-83
2023/03/16 08:57:36;;;;;;;;;;;2.10;99.90;;;;;;5016853;28;19914;-83
2023/03/16 09:00:11;;;;;;;;;;;2.30;99.90;;;;;;5020329;28;19914;-81
2023/03/16 09:02:37;;;;;;;;;;;2.30;99.90;;;;;;5018957;28;20008;-82
2023/03/16 09:05:03;;;;;;;;;;;2.50;99.90;;;;;;5018390;28;19936;-83
2023/03/16 09:07:29;;;;;;;;;;;2.60;99.90;;;;;;5018008;28;20004;-83
2023/03/16 09:09:55;;;;;;;;;;;2.70;99.90;;;;;;5017864;28;19916;-82
2023/03/16 09:12:21;;;;;;;;;;;2.80;99.90;;;;;;5018317;28;20400;-82
2023/03/16 09:14:47;;;;;;;;;;;2.90;99.90;;;;;;5017507;28;19968;-83
2023/03/16 09:17:13;;;;;;;;;;;3.00;99.90;;;;;;5018117;28;20488;-83
2023/03/16 09:19:39;;;;;;;;;;;3.10;99.90;;;;;;5017756;28;19929;-83
2023/03/16 09:22:05;;;;;;;;;;;3.20;99.90;;;;;;5018462;28;19920;-84
2023/03/16 09:24:31;;;;;;;;;;;3.30;99.90;;;;;;5002356;28;19917;-84
2023/03/16 09:26:57;;;;;;;;;;;3.40;99.90;;;;;;5018156;28;19916;-80
2023/03/16 09:29:23;;;;;;;;;;;3.50;99.90;;;;;;5019443;28;19918;-82
2023/03/16 09:31:49;;;;;;;;;;;3.60;99.90;;;;;;5019809;28;19914;-81
2023/03/16 09:34:15;;;;;;;;;;;3.70;99.90;;;;;;5020176;28;19992;-81
2023/03/16 09:36:40;;;;;;;;;;;3.80;99.90;;;;;;5018632;28;19999;-81
2023/03/16 09:39:06;;;;;;;;;;;4.00;99.90;;;;;;5018764;28;20425;-81
2023/03/16 09:41:32;;;;;;;;;;;4.10;99.90;;;;;;5001823;28;19953;-81
2023/03/16 09:44:09;;;;;;;;;;;4.30;99.90;;;;;;5018353;28;20005;-81
2023/03/16 09:46:45;;;;;;;;;;;4.40;99.90;;;;;;5018517;28;19910;-81
2023/03/16 09:49:14;;;;;;;;;;;4.50;99.90;;;;;;5020169;28;19909;-81
2023/03/16 09:51:51;;;;;;;;;;;4.60;99.90;;;;;;5018626;28;19913;-81
2023/03/16 09:54:38;;;;;;;;;;;4.80;99.90;;;;;;5020235;28;19997;-81
2023/03/16 09:57:04;;;;;;;;;;;4.90;99.90;;;;;;5017763;28;19909;-82
2023/03/16 09:59:29;;;;;;;;;;;5.00;99.90;;;;;;5030475;28;19915;-82
2023/03/16 10:02:24;;;;;;;;;;;5.10;99.90;;;;;;5030724;28;19910;-82
2023/03/16 10:04:56;;;;;;;;;;;5.30;99.90;;;;;;5030807;28;19909;-82
2023/03/16 10:07:34;;;;;;;;;;;5.50;99.90;;;;;;5030518;28;19940;-81
2023/03/16 10:10:09;;;;;;;;;;;5.70;99.90;;;;;;5030245;28;20294;-81
2023/03/16 10:12:40;;;;;;;;;;;5.90;99.90;;;;;;5031477;28;19913;-82
2023/03/16 10:15:11;;;;;;;;;;;6.10;99.90;;;;;;5032005;28;19910;-82
2023/03/16 10:17:53;;;;;;;;;;;6.20;99.90;;;;;;5030125;28;19909;-82
2023/03/16 10:20:20;;;;;;;;;;;6.20;99.90;;;;;;5029307;28;19917;-82
2023/03/16 10:22:46;;;;;;;;;;;6.30;99.90;;;;;;5029617;28;19976;-81
2023/03/16 10:25:16;;;;;;;;;;;6.50;99.90;;;;;;5019184;28;20428;-83
2023/03/16 10:27:44;;;;;;;;;;;6.70;99.90;;;;;;5010783;28;20016;-83
2023/03/16 10:30:21;;;;;;;;;;;6.80;99.90;;;;;;5010595;28;19909;-81
2023/03/16 10:32:47;;;;;;;;;;;7.00;99.90;;;;;;5011370;28;19921;-84
2023/03/16 10:35:33;;;;;;;;;;;7.20;99.90;;;;;;4998654;28;19920;-81
2023/03/16 10:37:59;;;;;;;;;;;7.20;99.90;;;;;;4999119;28;20337;-85
2023/03/16 10:40:25;;;;;;;;;;;7.30;99.90;;;;;;4999733;28;19920;-84
2023/03/16 10:42:50;;;;;;;;;;;7.40;97.40;;;;;;5001054;28;20258;-85
2023/03/16 10:45:25;;;;;;;;;;;7.50;98.60;;;;;;5016672;28;19929;-85
2023/03/16 10:47:52;;;;;;;;;;;7.60;97.90;;;;;;5001271;28;19910;-85
2023/03/16 10:50:24;;;;;;;;;;;7.80;95.90;;;;;;5001044;28;19945;-82
2023/03/16 10:52:52;;;;;;;;;;;7.80;93.30;;;;;;4999537;28;19913;-77
2023/03/16 10:55:32;;;;;;;;;;;7.80;93.50;;;;;;5009543;28;19914;-77
2023/03/16 10:57:58;;;;;;;;;;;7.90;92.30;;;;;;5017198;28;20004;-77
2023/03/16 11:00:28;;;;;;;;;;;8.00;90.60;;;;;;5015769;28;19945;-77
2023/03/16 11:02:55;;;;;;;;;;;8.10;90.20;;;;;;5015502;28;19956;-77
2023/03/16 11:05:28;;;;;;;;;;;8.10;91.00;;;;;;5015841;28;20329;-76
2023/03/16 11:07:53;;;;;;;;;;;8.20;90.60;;;;;;5015476;28;19960;-77
2023/03/16 11:10:26;;;;;;;;;;;8.30;92.40;;;;;;5015770;28;19914;-77
2023/03/16 11:12:52;;;;;;;;;;;8.40;93.70;;;;;;5015563;28;19953;-77
2023/03/16 11:15:19;;;;;;;;;;;8.50;93.20;;;;;;5014597;28;19913;-77
2023/03/16 11:17:48;;;;;;;;;;;8.60;93.00;;;;;;5015847;28;19917;-78
2023/03/16 11:20:22;;;;;;;;;;;8.70;90.40;;;;;;5016493;28;19910;-79
2023/03/16 11:22:48;;;;;;;;;;;8.80;91.30;;;;;;5016620;28;19909;-80
2023/03/16 11:25:17;;;;;;;;;;;8.80;90.60;;;;;;5015918;28;20369;-77
2023/03/16 11:27:46;;;;;;;;;;;8.90;90.20;;;;;;5014884;28;20285;-79
2023/03/16 11:30:14;;;;;;;;;;;9.00;89.00;;;;;;5016352;28;19952;-76
2023/03/16 11:32:42;;;;;;;;;;;9.10;88.90;;;;;;5016511;28;19913;-78
2023/03/16 11:35:16;;;;;;;;;;;9.10;82.90;;;;;;5015861;28;19939;-79
2023/03/16 11:38:08;;;;;;;;;;;9.10;78.30;;;;;;5015761;28;20023;-80
2023/03/16 11:40:35;;;;;;;;;;;9.10;82.80;;;;;;5015222;28;19909;-79
2023/03/16 11:43:19;;;;;;;;;;;9.20;79.60;;;;;;5016691;28;19909;-79
2023/03/16 11:45:57;;;;;;;;;;;9.30;84.50;;;;;;5015862;28;19952;-74
2023/03/16 11:48:36;;;;;;;;;;;9.20;79.80;;;;;;5014115;28;20290;-76
2023/03/16 11:51:05;;;;;;;;;;;9.30;81.00;;;;;;5016618;28;20320;-78
2023/03/16 11:53:46;;;;;;;;;;;9.30;74.90;;;;;;5017323;28;20393;-83
2023/03/16 11:56:19;;;;;;;;;;;9.30;75.20;;;;;;5017674;28;19909;-82
2023/03/16 11:58:57;;;;;;;;;;;9.40;70.90;;;;;;5017640;28;19910;-83
2023/03/16 12:01:30;;;;;;;;;;;9.60;71.50;;;;;;5018278;28;19909;-83
2023/03/16 12:04:15;;;;;;;;;;;9.70;72.50;;;;;;5017648;28;19909;-82
2023/03/16 12:07:00;;;;;;;;;;;9.70;71.30;;;;;;5017375;28;19909;-81
2023/03/16 12:09:42;;;;;;;;;;;9.80;73.00;;;;;;5016868;28;20278;-79
2023/03/16 12:12:19;;;;;;;;;;;9.80;68.50;;;;;;5015540;28;19917;-78
2023/03/16 12:14:58;;;;;;;;;;;9.80;69.10;;;;;;5014443;28;19916;-79
2023/03/16 12:17:26;;;;;;;;;;;9.90;71.10;;;;;;5016045;28;19914;-79
2023/03/16 12:19:58;;;;;;;;;;;10.00;76.20;;;;;;5016056;28;20026;-82
2023/03/16 12:22:31;;;;;;;;;;;10.10;73.60;;;;;;5017419;28;19909;-81
2023/03/16 12:24:56;;;;;;;;;;;10.20;71.10;;;;;;5017122;28;19999;-81
2023/03/16 12:27:30;;;;;;;;;;;10.30;74.40;;;;;;5018878;28;19917;-81
2023/03/16 12:30:14;;;;;;;;;;;10.40;74.40;;;;;;5016615;28;19910;-81
2023/03/16 12:32:52;;;;;;;;;;;10.50;69.10;;;;;;5016459;28;19972;-81
2023/03/16 12:35:37;;;;;;;;;;;10.50;67.10;;;;;;5018449;28;19909;-80
2023/03/16 12:38:21;;;;;;;;;;;10.60;66.90;;;;;;5014823;28;19921;-81
2023/03/16 12:40:53;;;;;;;;;;;10.60;66.50;;;;;;5017650;28;19932;-79
2023/03/16 12:43:25;;;;;;;;;;;10.60;69.50;;;;;;5018156;28;20377;-80
2023/03/16 12:45:58;;;;;;;;;;;10.70;68.00;;;;;;5017881;28;20004;-78
2023/03/16 12:48:36;;;;;;;;;;;10.70;67.40;;;;;;5018103;28;19910;-81
2023/03/16 12:51:03;;;;;;;;;;;10.80;66.30;;;;;;5015703;28;19933;-81
2023/03/16 12:53:42;;;;;;;;;;;10.80;67.20;;;;;;5014300;28;19920;-81
2023/03/16 12:56:18;;;;;;;;;;;10.90;65.60;;;;;;5014048;28;19909;-81
2023/03/16 12:58:49;;;;;;;;;;;10.90;65.10;;;;;;5013048;28;19909;-81
2023/03/16 13:01:17;;;;;;;;;;;11.10;65.40;;;;;;5017314;28;19909;-81
2023/03/16 13:03:45;;;;;;;;;;;11.10;58.40;;;;;;5016389;28;20392;-81
2023/03/16 13:06:19;;;;;;;;;;;11.00;58.80;;;;;;5015233;28;19909;-81
2023/03/16 13:08:47;;;;;;;;;;;11.10;59.10;;;;;;5021414;28;19913;-81
2023/03/16 13:11:16;;;;;;;;;;;11.20;53.50;;;;;;5015807;28;19913;-79
2023/03/16 13:13:48;;;;;;;;;;;11.30;55.10;;;;;;5014282;28;19922;-79
2023/03/16 13:16:35;;;;;;;;;;;11.40;61.30;;;;;;5016225;28;19910;-79
2023/03/16 13:19:15;;;;;;;;;;;11.50;63.50;;;;;;5017293;28;20289;-79
2023/03/16 13:21:41;;;;;;;;;;;11.70;58.20;;;;;;5013713;28;19916;-81
2023/03/16 13:24:16;;;;;;;;;;;11.80;56.80;;;;;;5014861;28;20243;-78
2023/03/16 13:26:47;;;;;;;;;;;11.90;57.30;;;;;;5015336;28;19919;-80
2023/03/16 13:29:21;;;;;;;;;;;12.00;55.70;;;;;;5012938;28;19913;-78
2023/03/16 13:31:47;;;;;;;;;;;12.00;55.50;;;;;;5014482;28;19920;-77
2023/03/16 13:34:20;;;;;;;;;;;12.00;52.10;;;;;;5016264;28;19925;-78
2023/03/16 13:36:45;;;;;;;;;;;11.90;56.70;;;;;;5015392;28;19917;-79
2023/03/16 13:39:18;;;;;;;;;;;12.10;54.20;;;;;;5015464;28;19909;-81
2023/03/16 13:41:58;;;;;;;;;;;12.30;54.60;;;;;;5015152;28;19909;-81
2023/03/16 13:44:25;;;;;;;;;;;12.30;55.00;;;;;;5017462;28;19909;-81
2023/03/16 13:46:51;;;;;;;;;;;12.30;53.20;;;;;;5018822;28;19917;-81
2023/03/16 13:49:17;;;;;;;;;;;12.30;54.00;;;;;;5018316;28;19909;-80
2023/03/16 13:51:45;;;;;;;;;;;12.30;59.00;;;;;;5017524;28;20016;-80
2023/03/16 13:54:29;;;;;;;;;;;12.50;57.30;;;;;;5014038;28;19910;-80
2023/03/16 13:57:00;;;;;;;;;;;12.60;55.10;;;;;;5012715;28;19961;-80
2023/03/16 13:59:26;;;;;;;;;;;12.40;56.70;;;;;;5001053;28;19917;-80
2023/03/16 14:01:57;;;;;;;;;;;12.50;53.00;;;;;;5017897;28;19909;-80
2023/03/16 14:04:24;;;;;;;;;;;12.50;52.60;;;;;;5002249;28;19979;-79
2023/03/16 14:06:57;;;;;;;;;;;12.60;54.20;;;;;;4999491;28;19992;-79
2023/03/16 14:09:26;;;;;;;;;;;12.50;53.00;;;;;;5001377;28;19916;-80
2023/03/16 14:11:51;;;;;;;;;;;12.50;53.80;;;;;;5000726;28;19914;-80
2023/03/16 14:14:49;;;;;;;;;;;12.30;55.70;;;;;;5009582;28;19914;-81
2023/03/16 14:17:16;;;;;;;;;;;12.40;55.20;;;;;;4992777;28;19917;-81
2023/03/16 14:19:45;;;;;;;;;;;12.40;55.20;;;;;;5002693;28;19992;-80
2023/03/16 14:22:12;;;;;;;;;;;12.40;55.80;;;;;;5001227;28;20354;-77
2023/03/16 14:24:39;;;;;;;;;;;12.40;54.60;;;;;;5005990;28;19924;-78
2023/03/16 14:27:14;;;;;;;;;;;12.40;54.50;;;;;;5018103;28;19915;-78
2023/03/16 14:29:41;;;;;;;;;;;12.40;55.30;;;;;;5017467;28;19909;-78
2023/03/16 14:32:17;;;;;;;;;;;12.40;54.40;;;;;;5019276;28;19920;-78
2023/03/16 14:34:47;;;;;;;;;;;12.40;55.10;;;;;;5018326;28;20024;-78
2023/03/16 14:37:14;;;;;;;;;;;12.50;54.50;;;;;;5018157;28;20289;-77